Time;durP1;ratioP1;P1;durP2;ratioP2;P2;SDS_P1;SDS_P2;PMS_P1;PMS_P2;Temp;Humidity;BMP_temperature;BMP_pressure;BME280_temperature;BME280_humidity;BME280_pressure;Samples;Min_cycle;Max_cycle;Signal;HPM_P1;HPM_P2
2021/07/09 00:01:03;;;;;;;18.02;11.20;;;17.20;99.90;;;;;;12447933;28;20099;-38
2021/07/09 00:07:05;;;;;;;16.83;12.10;;;17.30;99.90;;;;;;12439701;28;20053;-38
2021/07/09 00:13:06;;;;;;;18.95;12.25;;;17.30;99.90;;;;;;12453664;28;20486;-38
2021/07/09 00:19:08;;;;;;;27.52;13.23;;;17.30;99.90;;;;;;12443334;28;20045;-41
2021/07/09 00:25:11;;;;;;;32.55;13.60;;;17.20;99.90;;;;;;12446763;28;20107;-39
2021/07/09 00:31:13;;;;;;;25.85;14.57;;;17.20;99.90;;;;;;12439639;28;20041;-38
2021/07/09 00:37:14;;;;;;;37.88;15.93;;;17.10;99.90;;;;;;12444962;28;20425;-38
2021/07/09 00:43:16;;;;;;;27.83;16.23;;;17.10;99.90;;;;;;12443151;28;20387;-38
2021/07/09 00:49:18;;;;;;;23.20;15.55;;;17.10;99.90;;;;;;12439434;28;20383;-39
2021/07/09 00:55:21;;;;;;;30.35;16.25;;;17.20;99.90;;;;;;12442625;28;20221;-39
2021/07/09 01:01:23;;;;;;;37.80;18.35;;;17.20;99.90;;;;;;12440974;28;20091;-38
2021/07/09 01:07:26;;;;;;;40.22;18.80;;;17.10;99.90;;;;;;12445577;28;20079;-38
2021/07/09 01:13:29;;;;;;;26.27;17.07;;;17.00;99.90;;;;;;12446752;28;20038;-39
2021/07/09 01:19:30;;;;;;;26.35;17.83;;;17.10;99.90;;;;;;12443372;28;20107;-38
2021/07/09 01:25:32;;;;;;;26.30;18.05;;;17.20;99.90;;;;;;12446677;28;20436;-39
2021/07/09 01:31:35;;;;;;;25.80;19.38;;;17.20;99.90;;;;;;12440790;28;20080;-38
2021/07/09 01:37:37;;;;;;;29.83;20.20;;;17.20;99.90;;;;;;12436485;28;20049;-39
2021/07/09 01:43:40;;;;;;;28.07;19.97;;;17.20;99.90;;;;;;12437326;28;20080;-39
2021/07/09 01:50:00;;;;;;;27.55;20.10;;;17.20;99.90;;;;;;12444735;28;20041;-39
2021/07/09 01:56:02;;;;;;;28.45;20.67;;;17.20;99.90;;;;;;12443221;28;20065;-39
2021/07/09 02:02:05;;;;;;;26.75;19.70;;;17.20;99.90;;;;;;12438957;28;20469;-38
2021/07/09 02:08:07;;;;;;;28.73;21.17;;;17.20;99.90;;;;;;12444706;28;20053;-39
2021/07/09 02:14:09;;;;;;;25.63;21.30;;;17.20;99.90;;;;;;12439542;28;20096;-39
2021/07/09 02:20:17;;;;;;;32.30;21.23;;;17.20;99.90;;;;;;12436799;28;20095;-40
2021/07/09 02:26:19;;;;;;;32.38;22.00;;;17.00;99.90;;;;;;12442439;28;20049;-39
2021/07/09 02:32:20;;;;;;;27.10;21.13;;;17.00;99.90;;;;;;12444122;28;20073;-38
2021/07/09 02:38:22;;;;;;;31.08;22.33;;;16.90;99.90;;;;;;12447669;28;20723;-39
2021/07/09 02:44:25;;;;;;;30.67;23.00;;;16.90;99.90;;;;;;12443604;28;20058;-38
2021/07/09 02:50:27;;;;;;;30.25;21.45;;;16.80;99.90;;;;;;12432476;28;20045;-38
2021/07/09 02:56:28;;;;;;;33.15;21.75;;;16.80;99.90;;;;;;12442131;28;20847;-40
2021/07/09 03:02:30;;;;;;;28.38;22.67;;;16.80;99.90;;;;;;12450420;28;20056;-39
2021/07/09 03:08:33;;;;;;;27.23;22.00;;;16.70;99.90;;;;;;12455067;28;20046;-39
2021/07/09 03:14:35;;;;;;;28.58;22.77;;;16.80;99.90;;;;;;12453529;28;20057;-38
2021/07/09 03:20:37;;;;;;;31.67;21.05;;;16.70;99.90;;;;;;12451766;28;20045;-38
2021/07/09 03:26:43;;;;;;;31.30;21.45;;;16.80;99.90;;;;;;12451777;28;20161;-39
2021/07/09 03:32:46;;;;;;;30.17;22.00;;;16.70;99.90;;;;;;12447796;28;20721;-39
2021/07/09 03:38:49;;;;;;;31.63;21.40;;;16.60;99.90;;;;;;12452145;28;20049;-38
2021/07/09 03:44:50;;;;;;;31.90;20.92;;;16.70;99.90;;;;;;12453573;28;20049;-38
2021/07/09 03:50:52;;;;;;;25.65;18.33;;;16.60;99.90;;;;;;12450417;28;20058;-39
2021/07/09 03:56:54;;;;;;;22.67;19.40;;;16.50;99.90;;;;;;12448237;28;20501;-38
2021/07/09 04:02:56;;;;;;;28.65;18.48;;;16.60;99.90;;;;;;12447578;28;20045;-38
2021/07/09 04:08:58;;;;;;;22.88;18.40;;;16.50;99.90;;;;;;12451768;28;20485;-39
2021/07/09 04:14:59;;;;;;;22.45;17.45;;;16.50;99.90;;;;;;12449645;28;20116;-38
2021/07/09 04:21:01;;;;;;;22.27;16.73;;;16.50;99.90;;;;;;12446624;28;20086;-38
2021/07/09 04:27:03;;;;;;;22.55;17.75;;;16.50;99.90;;;;;;12451168;28;20088;-38
2021/07/09 04:33:05;;;;;;;24.23;17.00;;;16.60;99.90;;;;;;12446589;28;20095;-39
2021/07/09 04:39:07;;;;;;;22.00;17.27;;;16.50;99.90;;;;;;12444148;28;20107;-38
2021/07/09 04:45:09;;;;;;;23.10;17.80;;;16.50;99.90;;;;;;12449484;28;20124;-39
2021/07/09 04:51:11;;;;;;;24.80;17.05;;;16.50;99.90;;;;;;12441957;28;20103;-38
2021/07/09 04:57:13;;;;;;;24.48;17.30;;;16.50;99.90;;;;;;12444570;28;20114;-39
2021/07/09 05:03:15;;;;;;;27.23;17.88;;;16.60;99.90;;;;;;12442560;28;20308;-39
2021/07/09 05:09:17;;;;;;;27.67;18.48;;;16.50;99.90;;;;;;12440234;28;20050;-38
2021/07/09 05:15:19;;;;;;;20.48;17.23;;;16.50;99.90;;;;;;12444003;28;20072;-40
2021/07/09 05:21:22;;;;;;;20.98;16.85;;;16.60;99.90;;;;;;12447187;28;20079;-39
2021/07/09 05:27:27;;;;;;;26.95;18.17;;;16.60;99.90;;;;;;12444723;28;20111;-39
2021/07/09 05:33:29;;;;;;;25.33;18.15;;;16.60;99.90;;;;;;12450089;28;20049;-39
2021/07/09 05:39:31;;;;;;;26.17;18.63;;;16.60;99.90;;;;;;12442214;28;20251;-39
2021/07/09 05:45:34;;;;;;;25.65;18.83;;;16.60;99.90;;;;;;12448492;28;20833;-39
2021/07/09 05:51:36;;;;;;;25.08;18.67;;;16.50;99.90;;;;;;12440183;28;20120;-38
2021/07/09 05:57:38;;;;;;;26.00;18.30;;;16.60;99.90;;;;;;12446742;28;20054;-40
2021/07/09 06:03:40;;;;;;;25.60;19.55;;;16.60;99.90;;;;;;12441007;28;20050;-39
2021/07/09 06:09:41;;;;;;;27.95;19.95;;;16.60;99.90;;;;;;12442410;28;20448;-39
2021/07/09 06:15:43;;;;;;;28.00;18.70;;;16.60;99.90;;;;;;12441342;28;20112;-38
2021/07/09 06:21:52;;;;;;;28.92;20.42;;;16.50;99.90;;;;;;12437795;28;20041;-39
2021/07/09 06:27:54;;;;;;;27.20;20.58;;;16.70;99.90;;;;;;12434021;28;20054;-39
2021/07/09 06:33:56;;;;;;;29.00;20.13;;;16.70;99.90;;;;;;12437421;28;20375;-39
2021/07/09 06:39:58;;;;;;;28.02;20.20;;;16.80;99.90;;;;;;12437769;28;20061;-39
2021/07/09 06:46:00;;;;;;;26.83;20.00;;;16.70;99.90;;;;;;12429335;28;20053;-39
2021/07/09 06:52:02;;;;;;;29.15;20.35;;;16.80;99.90;;;;;;12446277;28;20049;-39
2021/07/09 06:58:04;;;;;;;26.85;20.42;;;16.80;99.90;;;;;;12441926;28;20457;-38
2021/07/09 07:04:09;;;;;;;33.70;20.98;;;16.90;99.90;;;;;;12443525;28;20061;-38
2021/07/09 07:10:12;;;;;;;28.23;21.05;;;16.80;99.90;;;;;;12439015;28;20280;-39
2021/07/09 07:16:13;;;;;;;31.40;21.67;;;16.80;99.90;;;;;;12445620;28;20046;-39
2021/07/09 07:22:15;;;;;;;29.50;19.80;;;16.80;99.90;;;;;;12435638;28;20046;-39
2021/07/09 07:28:19;;;;;;;23.20;18.35;;;16.80;99.90;;;;;;12441739;28;20103;-39
2021/07/09 07:34:41;;;;;;;28.38;19.95;;;16.90;99.90;;;;;;12445137;28;20069;-39
2021/07/09 07:40:43;;;;;;;28.15;19.52;;;17.10;99.90;;;;;;12438346;28;20042;-38
2021/07/09 07:46:48;;;;;;;28.35;21.20;;;17.10;99.90;;;;;;12443898;28;20094;-40
2021/07/09 07:52:50;;;;;;;25.15;20.90;;;17.20;99.90;;;;;;12447196;28;20045;-39
2021/07/09 07:58:53;;;;;;;28.08;22.38;;;17.10;99.90;;;;;;12445555;28;20088;-39
2021/07/09 08:04:55;;;;;;;29.63;23.52;;;17.10;99.90;;;;;;12446185;28;20493;-38
2021/07/09 08:10:57;;;;;;;32.53;23.88;;;17.10;99.90;;;;;;12443565;28;20104;-40
2021/07/09 08:16:59;;;;;;;33.13;24.13;;;17.10;99.90;;;;;;12450118;28;20045;-39
2021/07/09 08:23:02;;;;;;;33.58;23.83;;;17.10;99.90;;;;;;12448788;28;20096;-39
2021/07/09 08:29:04;;;;;;;27.38;22.67;;;17.00;99.90;;;;;;12444830;28;20144;-38
2021/07/09 08:35:24;;;;;;;27.65;21.30;;;17.10;99.90;;;;;;12446117;28;20890;-39
2021/07/09 08:41:26;;;;;;;29.13;22.30;;;17.10;99.90;;;;;;12449988;28;20045;-41
2021/07/09 08:47:31;;;;;;;28.05;22.45;;;17.10;99.90;;;;;;12444414;28;20091;-41
2021/07/09 08:53:33;;;;;;;26.67;21.70;;;17.20;99.90;;;;;;12434390;28;20050;-41
2021/07/09 08:59:35;;;;;;;29.10;19.88;;;17.30;99.90;;;;;;12442798;28;20124;-42
2021/07/09 09:05:37;;;;;;;25.30;19.30;;;17.40;99.90;;;;;;12445477;28;20459;-42
2021/07/09 09:11:40;;;;;;;25.55;18.05;;;17.30;99.90;;;;;;12446126;28;20046;-41
2021/07/09 09:17:42;;;;;;;24.90;17.02;;;17.40;99.90;;;;;;12447696;28;20096;-42
2021/07/09 09:23:50;;;;;;;20.67;15.07;;;17.50;99.90;;;;;;12441551;28;20112;-41
2021/07/09 09:30:06;;;;;;;19.67;13.73;;;17.70;99.90;;;;;;12442643;28;20046;-41
2021/07/09 09:36:09;;;;;;;15.35;12.25;;;17.80;99.90;;;;;;12443008;28;20096;-41
2021/07/09 09:42:26;;;;;;;16.30;11.63;;;17.70;99.90;;;;;;12442436;28;20741;-42
2021/07/09 09:48:54;;;;;;;13.10;10.15;;;17.90;99.90;;;;;;12440378;28;20041;-42
2021/07/09 09:54:56;;;;;;;13.73;9.73;;;17.90;99.90;;;;;;12440633;28;20068;-41
2021/07/09 10:00:58;;;;;;;11.52;8.98;;;18.10;99.90;;;;;;12446538;28;20107;-41
2021/07/09 10:07:01;;;;;;;12.93;8.68;;;18.00;99.90;;;;;;12442870;28;20092;-41
2021/07/09 10:13:05;;;;;;;;;;;18.00;99.90;;;;;;12438516;28;20053;-41
2021/07/09 10:19:14;;;;;;;11.60;8.32;;;17.90;99.90;;;;;;12441083;28;19934;-41
2021/07/09 10:25:18;;;;;;;13.23;8.35;;;17.90;99.90;;;;;;12434992;28;20080;-41
2021/07/09 10:31:36;;;;;;;11.98;7.45;;;17.90;99.90;;;;;;12438040;28;20045;-42
2021/07/09 10:37:39;;;;;;;11.57;7.53;;;17.90;99.90;;;;;;12440819;28;20087;-42
2021/07/09 10:43:41;;;;;;;11.57;7.43;;;18.00;99.90;;;;;;12441459;28;20045;-42
2021/07/09 10:49:52;;;;;;;14.88;6.82;;;18.00;99.90;;;;;;12439768;28;20050;-41
2021/07/09 10:56:09;;;;;;;12.88;6.72;;;17.90;99.90;;;;;;12433355;28;20088;-41
2021/07/09 11:02:49;;;;;;;9.63;6.40;;;17.80;99.90;;;;;;12434448;28;20061;-41
2021/07/09 11:08:55;;;;;;;11.20;6.88;;;17.70;99.90;;;;;;12432325;28;20152;-41
2021/07/09 11:15:03;;;;;;;11.25;6.43;;;17.70;99.90;;;;;;12432794;28;20050;-43
2021/07/09 11:21:10;;;;;;;10.95;6.55;;;17.60;99.90;;;;;;12438634;28;20132;-42
2021/07/09 11:27:17;;;;;;;12.60;6.90;;;17.60;99.90;;;;;;12442151;28;20049;-43
2021/07/09 11:33:24;;;;;;;12.05;6.97;;;17.60;99.90;;;;;;12444417;28;20490;-41
2021/07/09 11:39:32;;;;;;;13.18;7.15;;;17.60;99.90;;;;;;12447382;28;20045;-41
2021/07/09 11:45:34;;;;;;;11.07;7.80;;;17.70;99.90;;;;;;12446921;28;20053;-42
2021/07/09 11:51:35;;;;;;;11.07;8.02;;;17.70;99.90;;;;;;12447375;28;20528;-41
2021/07/09 11:57:40;;;;;;;14.07;8.55;;;17.80;99.90;;;;;;12451523;28;20647;-41
2021/07/09 12:03:49;;;;;;;12.68;8.93;;;17.90;99.90;;;;;;12444945;28;20077;-42
2021/07/09 12:10:00;;;;;;;12.55;8.95;;;17.80;99.90;;;;;;12449384;28;20095;-41
2021/07/09 12:16:06;;;;;;;12.93;9.25;;;17.80;99.90;;;;;;12449721;28;20974;-41
2021/07/09 12:22:24;;;;;;;17.08;10.13;;;17.70;99.90;;;;;;12454116;28;20053;-41
2021/07/09 12:28:29;;;;;;;17.10;10.73;;;17.60;99.90;;;;;;12446954;28;20195;-41
2021/07/09 12:34:32;;;;;;;17.10;10.15;;;17.70;99.90;;;;;;12445583;28;20050;-43
2021/07/09 12:40:45;;;;;;;14.02;9.82;;;17.70;99.90;;;;;;12442607;28;20061;-41
2021/07/09 12:47:07;;;;;;;19.88;11.88;;;17.80;99.90;;;;;;12446898;28;20494;-42
2021/07/09 12:53:20;;;;;;;16.52;11.95;;;17.80;99.90;;;;;;12439755;28;20049;-41
2021/07/09 12:59:23;;;;;;;16.00;12.18;;;17.70;99.90;;;;;;12440766;28;20594;-42
2021/07/09 13:05:25;;;;;;;19.80;12.83;;;17.70;99.90;;;;;;12443137;28;20091;-41
2021/07/09 13:11:37;;;;;;;19.15;12.57;;;17.70;99.90;;;;;;12441390;28;20464;-41
2021/07/09 13:17:39;;;;;;;19.75;13.45;;;17.60;99.90;;;;;;12445229;28;20099;-43
2021/07/09 13:23:42;;;;;;;19.85;13.35;;;17.50;99.90;;;;;;12442808;28;20053;-41
2021/07/09 13:29:44;;;;;;;20.20;14.00;;;17.50;99.90;;;;;;12437842;28;20046;-41
2021/07/09 13:35:49;;;;;;;17.50;13.27;;;17.60;99.90;;;;;;12440707;28;20916;-41
2021/07/09 13:41:51;;;;;;;16.33;10.95;;;17.70;99.90;;;;;;12439834;28;20091;-41
2021/07/09 13:48:00;;;;;;;12.70;8.82;;;17.80;99.90;;;;;;12444936;28;20115;-41
2021/07/09 13:54:14;;;;;;;15.05;9.02;;;18.10;99.90;;;;;;12441874;28;20052;-41
2021/07/09 14:00:24;;;;;;;12.32;9.25;;;18.20;99.90;;;;;;12444323;28;20041;-42
2021/07/09 14:06:26;;;;;;;11.18;8.45;;;18.40;99.90;;;;;;12438334;28;20099;-42
2021/07/09 14:12:29;;;;;;;11.70;8.52;;;18.60;99.90;;;;;;12441871;28;20049;-42
2021/07/09 14:18:31;;;;;;;;;;;18.70;99.90;;;;;;12436876;28;20069;-41
2021/07/09 14:24:35;;;;;;;11.57;7.60;;;18.80;99.90;;;;;;12441770;28;19932;-41
2021/07/09 14:30:39;;;;;;;10.40;7.18;;;19.00;99.90;;;;;;12442124;28;20045;-41
2021/07/09 14:36:49;;;;;;;9.68;6.22;;;19.10;99.90;;;;;;12439860;28;20053;-41
2021/07/09 14:42:52;;;;;;;14.00;6.97;;;19.30;99.90;;;;;;12436422;28;20286;-41
2021/07/09 14:48:54;;;;;;;14.45;5.93;;;19.40;99.90;;;;;;12438452;28;20060;-43
2021/07/09 14:54:56;;;;;;;11.88;6.55;;;19.50;99.90;;;;;;12438460;28;20390;-42
2021/07/09 15:00:58;;;;;;;10.05;5.13;;;19.50;99.90;;;;;;12445669;28;20045;-42
2021/07/09 15:07:02;;;;;;;10.55;5.70;;;19.60;99.90;;;;;;12447727;28;20050;-42
2021/07/09 15:13:03;;;;;;;;;;;19.80;99.90;;;;;;12451436;28;20846;-42
2021/07/09 15:19:21;;;;;;;6.85;5.47;;;19.80;99.90;;;;;;12451563;28;19976;-42
2021/07/09 15:25:22;;;;;;;8.55;5.75;;;19.90;99.90;;;;;;12447734;28;20147;-42
2021/07/09 15:31:24;;;;;;;9.23;4.85;;;20.00;99.90;;;;;;12452079;28;20045;-42
2021/07/09 15:37:26;;;;;;;7.63;5.90;;;19.90;99.90;;;;;;12447766;28;20102;-42
2021/07/09 15:43:28;;;;;;;8.15;4.82;;;19.80;99.90;;;;;;12444938;28;20057;-42
2021/07/09 15:49:30;;;;;;;7.47;5.45;;;19.90;99.90;;;;;;12443105;28;20041;-42
2021/07/09 15:55:32;;;;;;;7.20;5.43;;;19.80;99.90;;;;;;12444974;28;20478;-41
2021/07/09 16:01:34;;;;;;;7.18;4.93;;;19.70;99.90;;;;;;12448486;28;20566;-42
2021/07/09 16:07:36;;;;;;;9.65;5.22;;;19.50;99.90;;;;;;12448099;28;20061;-42
2021/07/09 16:13:38;;;;;;;7.63;5.07;;;19.40;99.90;;;;;;12450190;28;20110;-41
2021/07/09 16:19:40;;;;;;;7.40;4.82;;;19.40;99.90;;;;;;12449462;28;20546;-42
2021/07/09 16:25:42;;;;;;;8.25;5.30;;;19.40;99.90;;;;;;12445413;28;20149;-43
2021/07/09 16:31:44;;;;;;;7.10;5.22;;;19.50;99.90;;;;;;12442118;28;20559;-42
2021/07/09 16:37:46;;;;;;;10.20;5.60;;;19.50;99.90;;;;;;12448739;28;20041;-42
2021/07/09 16:43:48;;;;;;;6.85;5.32;;;19.50;99.90;;;;;;12444081;28;20050;-41
2021/07/09 16:49:50;;;;;;;6.68;5.15;;;19.60;99.90;;;;;;12441479;28;20103;-41
2021/07/09 16:55:52;;;;;;;6.82;5.40;;;19.80;99.90;;;;;;12439613;28;20434;-42
2021/07/09 17:01:54;;;;;;;5.75;4.63;;;19.90;99.90;;;;;;12440294;28;20042;-42
2021/07/09 17:07:56;;;;;;;8.75;5.13;;;20.10;99.90;;;;;;12444451;28;20050;-42
2021/07/09 17:13:58;;;;;;;9.20;5.10;;;20.10;99.90;;;;;;12441658;28;20100;-42
2021/07/09 17:20:00;;;;;;;6.88;5.13;;;20.20;99.90;;;;;;12440557;28;20061;-42
2021/07/09 17:26:01;;;;;;;5.72;4.75;;;20.30;99.90;;;;;;12444320;28;20053;-42
2021/07/09 17:32:04;;;;;;;6.05;4.57;;;20.40;99.90;;;;;;12441684;28;20635;-42
2021/07/09 17:38:06;;;;;;;6.05;4.60;;;20.60;99.90;;;;;;12444484;28;20060;-42
2021/07/09 17:44:08;;;;;;;8.82;5.10;;;20.70;99.90;;;;;;12441605;28;20057;-41
2021/07/09 17:50:11;;;;;;;6.20;4.43;;;20.70;99.90;;;;;;12439984;28;20041;-42
2021/07/09 17:56:12;;;;;;;5.43;4.10;;;20.80;99.90;;;;;;12443213;28;20050;-39
2021/07/09 18:02:15;;;;;;;8.32;4.20;;;21.10;99.90;;;;;;12443607;28;20049;-39
2021/07/09 18:08:17;;;;;;;6.85;4.07;;;21.40;99.90;;;;;;12437539;28;20486;-41
2021/07/09 18:14:19;;;;;;;5.07;3.85;;;21.90;99.90;;;;;;12440164;28;20049;-40
2021/07/09 18:20:22;;;;;;;5.93;4.15;;;22.10;99.90;;;;;;12433464;28;20435;-40
2021/07/09 18:26:24;;;;;;;7.70;4.40;;;22.00;99.90;;;;;;12438207;28;20045;-39
2021/07/09 18:32:27;;;;;;;9.07;4.68;;;21.50;99.90;;;;;;12439634;28;20053;-40
2021/07/09 18:38:29;;;;;;;5.15;3.80;;;21.20;99.90;;;;;;12437090;28;20050;-41
2021/07/09 18:44:31;;;;;;;5.68;3.97;;;20.90;99.90;;;;;;12437255;28;20934;-39
2021/07/09 18:50:34;;;;;;;10.13;4.30;;;20.60;99.90;;;;;;12430637;28;20132;-39
2021/07/09 18:56:36;;;;;;;5.95;4.38;;;20.40;99.90;;;;;;12437659;28;20049;-39
2021/07/09 19:02:39;;;;;;;7.60;4.28;;;20.30;99.90;;;;;;12438275;28;20057;-42
2021/07/09 19:08:43;;;;;;;6.00;4.25;;;20.10;99.90;;;;;;12440577;28;20184;-40
2021/07/09 19:14:45;;;;;;;6.55;4.70;;;20.00;99.90;;;;;;12441165;28;20037;-39
2021/07/09 19:20:47;;;;;;;6.22;4.80;;;19.80;99.90;;;;;;12442923;28;20041;-41
2021/07/09 19:26:50;;;;;;;7.32;4.72;;;19.60;99.90;;;;;;12436675;28;20065;-39
2021/07/09 19:32:52;;;;;;;6.65;4.45;;;19.50;99.90;;;;;;12441798;28;20045;-39
2021/07/09 19:38:54;;;;;;;5.80;4.57;;;19.40;99.90;;;;;;12439851;28;20054;-39
2021/07/09 19:44:56;;;;;;;6.85;5.03;;;19.30;99.90;;;;;;12444369;28;20091;-39
2021/07/09 19:50:58;;;;;;;8.65;4.75;;;19.00;99.90;;;;;;12450506;28;20045;-39
2021/07/09 19:57:00;;;;;;;6.82;4.65;;;18.80;99.90;;;;;;12438585;28;20053;-40
2021/07/09 20:03:02;;;;;;;7.43;5.18;;;18.40;99.90;;;;;;12443497;28;20087;-39
2021/07/09 20:09:04;;;;;;;8.00;5.75;;;18.20;99.90;;;;;;12448747;28;20053;-39
2021/07/09 20:15:07;;;;;;;6.75;4.60;;;18.20;99.90;;;;;;12446504;28;20084;-39
2021/07/09 20:21:10;;;;;;;8.23;5.13;;;18.10;99.90;;;;;;12445659;28;20190;-38
2021/07/09 20:27:12;;;;;;;7.93;5.20;;;18.10;99.90;;;;;;12441887;28;20053;-40
2021/07/09 20:33:14;;;;;;;5.68;4.45;;;18.10;99.90;;;;;;12446691;28;20702;-41
2021/07/09 20:39:17;;;;;;;7.13;4.45;;;18.10;99.90;;;;;;12444183;28;20050;-41
2021/07/09 20:45:20;;;;;;;12.18;4.93;;;17.90;99.90;;;;;;12438982;28;20046;-39
2021/07/09 20:51:23;;;;;;;9.40;5.65;;;17.70;99.90;;;;;;12441217;28;20057;-39
2021/07/09 20:57:25;;;;;;;8.87;5.10;;;17.70;99.90;;;;;;12443639;28;20096;-39
2021/07/09 21:03:27;;;;;;;10.23;5.82;;;17.60;99.90;;;;;;12445197;28;20420;-39
2021/07/09 21:09:29;;;;;;;10.63;5.50;;;17.60;99.90;;;;;;12445603;28;20411;-39
2021/07/09 21:15:30;;;;;;;13.48;5.28;;;17.40;99.90;;;;;;12434379;28;20108;-38
2021/07/09 21:21:33;;;;;;;9.48;5.55;;;17.30;99.90;;;;;;12440894;28;20058;-39
2021/07/09 21:27:53;;;;;;;15.50;5.75;;;17.10;99.90;;;;;;12437563;28;20053;-38
2021/07/09 21:33:55;;;;;;;16.65;5.45;;;17.10;99.90;;;;;;12439962;28;20123;-39
2021/07/09 21:39:57;;;;;;;20.73;6.28;;;16.80;99.90;;;;;;12441710;28;20091;-39
2021/07/09 21:45:58;;;;;;;13.18;6.13;;;16.60;99.90;;;;;;12442440;28;20115;-38
2021/07/09 21:52:00;;;;;;;10.43;6.05;;;16.60;99.90;;;;;;12438171;28;20152;-39
2021/07/09 21:58:02;;;;;;;12.32;5.47;;;16.70;99.90;;;;;;12441616;28;20062;-39
2021/07/09 22:04:15;;;;;;;13.68;6.32;;;16.50;99.90;;;;;;12437144;28;20152;-38
2021/07/09 22:10:17;;;;;;;14.77;5.68;;;16.50;99.90;;;;;;12440472;28;20045;-39
2021/07/09 22:16:19;;;;;;;12.10;5.75;;;16.50;99.90;;;;;;12440923;28;20057;-38
2021/07/09 22:22:23;;;;;;;18.50;5.68;;;16.40;99.90;;;;;;12435030;28;20045;-40
2021/07/09 22:28:25;;;;;;;12.07;6.17;;;16.30;99.90;;;;;;12440706;28;20877;-39
2021/07/09 22:34:26;;;;;;;15.35;5.43;;;16.10;99.90;;;;;;12440694;28;20349;-39
2021/07/09 22:40:28;;;;;;;21.05;5.93;;;16.20;99.90;;;;;;12441708;28;20111;-38
2021/07/09 22:46:30;;;;;;;21.42;6.30;;;16.10;99.90;;;;;;12442826;28;20049;-40
2021/07/09 22:52:32;;;;;;;13.32;6.57;;;16.00;99.90;;;;;;12435878;28;20092;-38
2021/07/09 22:58:34;;;;;;;14.20;5.80;;;15.90;99.90;;;;;;12434469;28;20057;-39
2021/07/09 23:04:36;;;;;;;9.57;5.45;;;15.80;99.90;;;;;;12437313;28;20045;-38
2021/07/09 23:10:38;;;;;;;10.63;6.63;;;15.80;99.90;;;;;;12438406;28;20050;-39
2021/07/09 23:16:40;;;;;;;10.57;7.15;;;15.80;99.90;;;;;;12430079;28;20104;-40
2021/07/09 23:22:43;;;;;;;8.75;6.45;;;15.80;99.90;;;;;;12446106;28;20344;-39
2021/07/09 23:28:44;;;;;;;12.02;5.93;;;15.80;99.90;;;;;;12444770;28;20103;-40
2021/07/09 23:34:46;;;;;;;10.68;6.22;;;15.90;99.90;;;;;;12444486;28;20069;-38
2021/07/09 23:40:48;;;;;;;9.45;6.28;;;15.80;99.90;;;;;;12449802;28;20068;-39
2021/07/09 23:46:50;;;;;;;15.82;6.95;;;15.70;99.90;;;;;;12449356;28;20478;-38
2021/07/09 23:52:53;;;;;;;18.98;7.00;;;15.70;99.90;;;;;;12445364;28;20049;-38
2021/07/09 23:58:54;;;;;;;18.73;6.95;;;15.60;99.90;;;;;;12447036;28;20115;-40
